createdAt,value
2018-11-29T00:00:51.456Z,-2.10
2018-11-29T00:03:20.830Z,-2.10
2018-11-29T00:05:50.033Z,-2.10
2018-11-29T00:08:19.351Z,-2.10
2018-11-29T00:10:50.347Z,-2.10
2018-11-29T00:13:21.471Z,-2.10
2018-11-29T00:15:50.968Z,-2.00
2018-11-29T00:18:20.239Z,-2.00
2018-11-29T00:20:49.743Z,-2.00
2018-11-29T00:23:19.882Z,-2.00
2018-11-29T00:25:49.250Z,-2.00
2018-11-29T00:28:18.530Z,-2.10
2018-11-29T00:30:47.681Z,-2.10
2018-11-29T00:33:16.794Z,-2.10
2018-11-29T00:35:46.207Z,-2.20
2018-11-29T00:38:15.473Z,-2.10
2018-11-29T00:40:46.106Z,-2.20
2018-11-29T00:43:15.846Z,-2.10
2018-11-29T00:45:49.438Z,-2.20
2018-11-29T00:48:19.025Z,-2.20
2018-11-29T00:50:48.074Z,-2.20
2018-11-29T00:53:17.361Z,-2.30
2018-11-29T00:55:46.561Z,-2.30
2018-11-29T00:58:15.718Z,-2.30
2018-11-29T01:00:46.098Z,-2.20
2018-11-29T01:03:15.217Z,-2.20
2018-11-29T01:05:44.390Z,-2.20
2018-11-29T01:08:13.593Z,-2.20
2018-11-29T01:10:43.747Z,-2.10
2018-11-29T01:13:12.829Z,-2.10
2018-11-29T01:15:48.431Z,-2.10
2018-11-29T01:18:17.640Z,-2.10
2018-11-29T01:20:47.464Z,-2.00
2018-11-29T01:23:16.751Z,-2.10
2018-11-29T01:28:13.199Z,-2.10
2018-11-29T01:30:42.609Z,-2.20
2018-11-29T01:33:12.049Z,-2.20
2018-11-29T01:35:41.260Z,-2.20
2018-11-29T01:38:11.625Z,-2.30
2018-11-29T01:40:41.364Z,-2.30
2018-11-29T01:43:10.646Z,-2.30
2018-11-29T01:45:39.840Z,-2.30
2018-11-29T01:48:08.985Z,-2.30
2018-11-29T01:50:38.274Z,-2.30
2018-11-29T01:53:08.124Z,-2.40
2018-11-29T01:55:37.806Z,-2.40
2018-11-29T01:58:07.106Z,-2.40
2018-11-29T02:00:36.576Z,-2.40
2018-11-29T02:03:05.929Z,-2.40
2018-11-29T02:05:35.282Z,-2.40
2018-11-29T02:08:04.585Z,-2.40
2018-11-29T02:10:38.905Z,-2.50
2018-11-29T02:13:07.960Z,-2.50
2018-11-29T02:15:37.189Z,-2.50
2018-11-29T02:18:06.228Z,-2.60
2018-11-29T02:20:35.212Z,-2.60
2018-11-29T02:23:06.069Z,-2.60
2018-11-29T02:25:35.340Z,-2.60
2018-11-29T02:28:04.606Z,-2.60
2018-11-29T02:30:34.981Z,-2.70
2018-11-29T02:33:05.297Z,-2.70
2018-11-29T02:35:35.112Z,-2.70
2018-11-29T02:38:04.621Z,-2.80
2018-11-29T02:40:34.095Z,-2.70
2018-11-29T02:43:03.243Z,-2.80
2018-11-29T02:45:32.386Z,-2.80
2018-11-29T02:48:01.582Z,-2.80
2018-11-29T02:50:30.653Z,-2.80
2018-11-29T02:52:59.806Z,-2.80
2018-11-29T02:55:28.959Z,-2.80
2018-11-29T02:57:57.904Z,-2.80
2018-11-29T03:00:27.140Z,-2.90
2018-11-29T03:02:56.405Z,-2.90
2018-11-29T03:05:25.462Z,-2.90
2018-11-29T03:07:56.048Z,-2.90
2018-11-29T03:10:26.777Z,-2.90
2018-11-29T03:12:57.034Z,-2.90
2018-11-29T03:15:27.055Z,-2.90
2018-11-29T03:17:56.404Z,-2.90
2018-11-29T03:20:25.623Z,-2.90
2018-11-29T03:22:55.987Z,-2.90
2018-11-29T03:25:25.337Z,-2.90
2018-11-29T03:27:55.873Z,-2.90
2018-11-29T03:30:27.383Z,-2.90
2018-11-29T03:32:58.877Z,-2.90
2018-11-29T03:35:29.011Z,-2.90
2018-11-29T03:37:59.244Z,-3.00
2018-11-29T03:40:28.629Z,-2.90
2018-11-29T03:42:58.396Z,-2.90
2018-11-29T03:45:27.886Z,-2.90
2018-11-29T03:47:58.465Z,-2.90
2018-11-29T03:50:27.914Z,-2.90
2018-11-29T03:52:58.273Z,-2.90
2018-11-29T03:55:37.509Z,-3.00
2018-11-29T03:58:07.970Z,-2.90
2018-11-29T04:00:39.110Z,-2.90
2018-11-29T04:03:10.014Z,-3.00
2018-11-29T04:05:40.601Z,-3.00
2018-11-29T04:08:10.179Z,-3.00
2018-11-29T04:10:39.621Z,-3.00
2018-11-29T04:13:10.619Z,-3.00
2018-11-29T04:15:40.140Z,-3.00
2018-11-29T04:18:09.955Z,-3.00
2018-11-29T04:20:39.309Z,-3.00
2018-11-29T04:23:10.314Z,-3.00
2018-11-29T04:25:40.460Z,-3.00
2018-11-29T04:28:11.149Z,-3.00
2018-11-29T04:30:40.500Z,-3.00
2018-11-29T04:33:10.821Z,-3.00
2018-11-29T04:35:40.226Z,-3.00
2018-11-29T04:38:09.651Z,-3.10
2018-11-29T04:40:39.128Z,-3.10
2018-11-29T04:43:09.332Z,-3.10
2018-11-29T04:45:50.616Z,-3.10
2018-11-29T04:48:21.313Z,-3.10
2018-11-29T04:50:51.425Z,-3.10
2018-11-29T04:53:23.510Z,-3.10
2018-11-29T04:55:54.073Z,-3.10
2018-11-29T04:58:23.410Z,-3.10
2018-11-29T05:00:52.733Z,-3.20
2018-11-29T05:03:29.165Z,-3.20
2018-11-29T05:05:59.353Z,-3.20
2018-11-29T05:08:29.354Z,-3.20
2018-11-29T05:10:59.115Z,-3.20
2018-11-29T05:13:28.423Z,-3.20
2018-11-29T05:15:58.582Z,-3.20
2018-11-29T05:18:28.177Z,-3.20
2018-11-29T05:20:57.455Z,-3.20
2018-11-29T05:23:27.077Z,-3.20
2018-11-29T05:25:57.626Z,-3.20
2018-11-29T05:28:26.997Z,-3.30
2018-11-29T05:30:57.239Z,-3.20
2018-11-29T05:33:26.408Z,-3.20
2018-11-29T05:35:55.965Z,-3.20
2018-11-29T05:38:27.051Z,-3.20
2018-11-29T05:40:56.460Z,-3.20
2018-11-29T05:43:25.652Z,-3.20
2018-11-29T05:45:56.427Z,-3.30
2018-11-29T05:48:25.839Z,-3.30
2018-11-29T05:50:55.436Z,-3.30
2018-11-29T05:53:25.960Z,-3.30
2018-11-29T05:55:56.280Z,-3.30
2018-11-29T05:58:26.577Z,-3.30
2018-11-29T06:00:56.019Z,-3.30
2018-11-29T06:03:31.735Z,-3.30
2018-11-29T06:06:02.098Z,-3.30
2018-11-29T06:08:32.396Z,-3.40
2018-11-29T06:11:03.181Z,-3.40
2018-11-29T06:13:33.546Z,-3.40
2018-11-29T06:16:04.139Z,-3.40
2018-11-29T06:18:34.320Z,-3.40
2018-11-29T06:21:04.446Z,-3.40
2018-11-29T06:23:34.995Z,-3.50
2018-11-29T06:26:05.596Z,-3.50
2018-11-29T06:28:35.210Z,-3.50
2018-11-29T06:31:05.846Z,-3.40
2018-11-29T06:33:35.321Z,-3.40
2018-11-29T06:36:04.913Z,-3.40
2018-11-29T06:38:34.668Z,-3.40
2018-11-29T06:41:05.592Z,-3.40
2018-11-29T06:43:35.101Z,-3.40
2018-11-29T06:46:05.006Z,-3.40
2018-11-29T06:48:34.389Z,-3.40
2018-11-29T06:51:04.563Z,-3.40
2018-11-29T06:53:39.409Z,-3.40
2018-11-29T06:56:10.111Z,-3.40
2018-11-29T06:58:41.697Z,-3.40
2018-11-29T07:01:12.026Z,-3.40
2018-11-29T07:03:41.490Z,-3.40
2018-11-29T07:06:11.956Z,-3.40
2018-11-29T07:08:43.015Z,-3.40
2018-11-29T07:11:12.350Z,-3.40
2018-11-29T07:13:42.336Z,-3.40
2018-11-29T07:16:11.680Z,-3.40
2018-11-29T07:18:42.583Z,-3.30
2018-11-29T07:21:23.096Z,-3.30
2018-11-29T07:23:53.914Z,-3.30
2018-11-29T07:26:23.427Z,-3.20
2018-11-29T07:28:52.785Z,-3.20
2018-11-29T07:31:22.263Z,-3.20
2018-11-29T07:33:51.828Z,-3.10
2018-11-29T07:36:21.268Z,-3.10
2018-11-29T07:38:50.770Z,-3.00
2018-11-29T07:41:20.059Z,-3.00
2018-11-29T07:43:49.470Z,-3.00
2018-11-29T07:46:19.866Z,-2.90
2018-11-29T07:48:52.037Z,-2.90
2018-11-29T07:51:25.553Z,-2.80
2018-11-29T07:54:02.220Z,-2.80
2018-11-29T07:56:31.610Z,-2.80
2018-11-29T07:59:02.828Z,-2.70
2018-11-29T08:01:32.342Z,-2.70
2018-11-29T08:04:03.244Z,-2.60
2018-11-29T08:06:33.796Z,-2.60
2018-11-29T08:09:04.648Z,-2.50
2018-11-29T08:11:34.176Z,-2.50
2018-11-29T08:14:04.663Z,-2.40
2018-11-29T08:16:34.190Z,-2.40
2018-11-29T08:19:03.612Z,-2.40
2018-11-29T08:21:33.771Z,-2.30
2018-11-29T08:24:03.556Z,-2.20
2018-11-29T08:26:35.858Z,-2.20
2018-11-29T08:29:07.540Z,-2.10
2018-11-29T08:31:36.832Z,-2.10
2018-11-29T08:34:07.877Z,-2.00
2018-11-29T08:36:37.918Z,-2.00
2018-11-29T08:39:11.215Z,-2.00
2018-11-29T08:41:41.213Z,-1.90
2018-11-29T08:44:11.691Z,-1.90
2018-11-29T08:46:42.533Z,-1.90
2018-11-29T08:49:12.690Z,-1.90
2018-11-29T08:51:43.243Z,-1.80
2018-11-29T08:54:13.812Z,-1.80
2018-11-29T08:56:44.229Z,-1.80
2018-11-29T08:59:17.549Z,-1.80
2018-11-29T09:01:47.920Z,-1.70
2018-11-29T09:04:18.579Z,-1.70
2018-11-29T09:06:48.803Z,-1.70
2018-11-29T09:09:18.724Z,-1.60
2018-11-29T09:11:55.138Z,-1.60
2018-11-29T09:14:27.564Z,-1.50
2018-11-29T09:17:02.188Z,-1.50
2018-11-29T09:19:32.323Z,-1.40
2018-11-29T09:22:09.219Z,-1.40
2018-11-29T09:24:53.029Z,-1.40
2018-11-29T09:27:52.985Z,-1.40
2018-11-29T09:30:45.733Z,-1.40
2018-11-29T09:33:22.604Z,-1.30
2018-11-29T09:35:56.941Z,-1.40
2018-11-29T09:38:32.773Z,-1.40
2018-11-29T09:41:09.293Z,-1.40
2018-11-29T09:43:40.389Z,-1.40
2018-11-29T09:46:16.260Z,-1.40
2018-11-29T09:48:53.233Z,-1.30
2018-11-29T09:51:26.604Z,-1.30
2018-11-29T09:53:57.758Z,-1.30
2018-11-29T09:56:30.921Z,-1.20
2018-11-29T09:59:08.868Z,-1.20
2018-11-29T10:01:54.413Z,-1.20
2018-11-29T10:08:11.806Z,-1.20
2018-11-29T10:10:53.520Z,-1.20
2018-11-29T10:16:48.815Z,-1.20
2018-11-29T10:19:48.169Z,-1.30
2018-11-29T10:25:36.556Z,-1.20
2018-11-29T10:28:31.097Z,-1.30
2018-11-29T10:31:06.940Z,-1.20
2018-11-29T10:36:57.852Z,-1.20
2018-11-29T10:39:31.931Z,-1.10
2018-11-29T10:42:08.436Z,-1.10
2018-11-29T10:44:54.629Z,-1.10
2018-11-29T10:47:31.098Z,-1.00
2018-11-29T10:50:09.834Z,-0.90
2018-11-29T10:52:49.117Z,-0.90
2018-11-29T10:55:28.001Z,-0.90
2018-11-29T11:00:57.829Z,-0.80
2018-11-29T11:03:36.428Z,-0.80
2018-11-29T11:06:15.483Z,-0.70
2018-11-29T11:08:50.866Z,-0.70
2018-11-29T11:11:39.663Z,-0.70
2018-11-29T11:14:25.928Z,-0.70
2018-11-29T11:17:01.317Z,-0.70
2018-11-29T11:19:31.860Z,-0.70
2018-11-29T11:22:05.717Z,-0.70
2018-11-29T11:24:50.192Z,-0.60
2018-11-29T11:27:21.394Z,-0.60
2018-11-29T11:29:52.297Z,-0.50
2018-11-29T11:32:24.388Z,-0.50
2018-11-29T11:34:57.083Z,-0.50
2018-11-29T11:37:29.455Z,-0.40
2018-11-29T11:40:00.584Z,-0.40
2018-11-29T11:42:31.208Z,-0.30
2018-11-29T11:45:06.854Z,-0.20
2018-11-29T11:47:37.504Z,-0.20
2018-11-29T11:50:14.573Z,-0.10
2018-11-29T11:52:45.062Z,-0.10
2018-11-29T11:55:19.169Z,-0.10
2018-11-29T11:57:46.893Z,0.00
2018-11-29T12:00:29.777Z,0.10
2018-11-29T12:03:19.505Z,0.10
2018-11-29T12:05:50.306Z,0.20
2018-11-29T12:08:33.325Z,0.20
2018-11-29T12:11:09.057Z,0.30
2018-11-29T12:13:42.654Z,0.40
2018-11-29T12:16:12.342Z,0.40
2018-11-29T12:18:50.042Z,0.50
2018-11-29T12:21:25.964Z,0.60
2018-11-29T12:23:55.863Z,0.60
2018-11-29T12:26:26.412Z,0.60
2018-11-29T12:29:07.255Z,0.60
2018-11-29T12:31:42.017Z,0.70
2018-11-29T12:36:57.980Z,0.60
2018-11-29T12:39:38.183Z,0.50
2018-11-29T12:42:11.707Z,0.40
2018-11-29T12:44:44.699Z,0.30
2018-11-29T12:47:14.965Z,0.30
2018-11-29T12:49:47.573Z,0.20
2018-11-29T12:52:23.683Z,0.20
2018-11-29T12:55:00.070Z,0.20
2018-11-29T13:00:35.559Z,0.20
2018-11-29T13:05:38.908Z,0.00
2018-11-29T13:10:46.059Z,-0.10
2018-11-29T13:13:15.270Z,-0.10
2018-11-29T13:15:44.524Z,-0.10
2018-11-29T13:18:14.396Z,-0.10
2018-11-29T13:21:07.204Z,-0.10
2018-11-29T13:23:42.124Z,-0.20
2018-11-29T13:26:14.197Z,-0.20
2018-11-29T13:28:43.445Z,-0.20
2018-11-29T13:31:12.710Z,-0.20
2018-11-29T13:33:42.728Z,-0.20
2018-11-29T13:36:11.814Z,-0.30
2018-11-29T13:38:45.409Z,-0.30
2018-11-29T13:41:16.476Z,-0.30
2018-11-29T13:43:45.843Z,-0.30
2018-11-29T13:46:17.120Z,-0.30
2018-11-29T13:48:46.309Z,-0.30
2018-11-29T13:51:15.684Z,-0.30
2018-11-29T13:53:45.062Z,-0.30
2018-11-29T13:56:16.573Z,-0.30
2018-11-29T13:58:45.859Z,-0.30
2018-11-29T14:01:15.682Z,-0.30
2018-11-29T14:03:45.900Z,-0.40
2018-11-29T14:06:15.094Z,-0.40
2018-11-29T14:08:44.508Z,-0.40
2018-11-29T14:11:20.298Z,-0.40
2018-11-29T14:13:49.543Z,-0.50
2018-11-29T14:16:25.588Z,-0.50
2018-11-29T14:53:30.070Z,-0.50
2018-11-29T14:55:59.368Z,-1.10
2018-11-29T14:58:28.855Z,-1.10
2018-11-29T15:00:58.224Z,-1.10
2018-11-29T15:03:27.997Z,-1.10
2018-11-29T15:08:32.115Z,-1.10
2018-11-29T15:11:01.711Z,-1.10
2018-11-29T15:13:37.374Z,-1.10
2018-11-29T15:16:07.415Z,-1.10
2018-11-29T15:18:36.588Z,-1.10
2018-11-29T15:21:05.708Z,-1.10
2018-11-29T15:23:35.408Z,-1.10
2018-11-29T15:26:05.754Z,-1.10
2018-11-29T15:28:35.022Z,-1.10
2018-11-29T15:31:04.272Z,-1.10
2018-11-29T15:33:33.644Z,-1.10
2018-11-29T15:36:02.955Z,-1.10
2018-11-29T15:38:32.847Z,-1.20
2018-11-29T15:41:04.234Z,-1.20
2018-11-29T15:43:50.587Z,-1.10
2018-11-29T15:46:20.250Z,-1.10
2018-11-29T15:48:49.649Z,-1.20
2018-11-29T15:51:19.220Z,-1.20
2018-11-29T15:53:49.040Z,-1.20
2018-11-29T15:56:20.642Z,-1.20
2018-11-29T15:58:50.346Z,-1.20
2018-11-29T16:01:21.203Z,-1.20
2018-11-29T16:03:51.076Z,-1.20
2018-11-29T16:06:20.881Z,-1.20
2018-11-29T16:24:36.096Z,-1.20
2018-11-29T16:27:05.809Z,-1.50
2018-11-29T16:29:35.962Z,-1.50
2018-11-29T16:32:07.479Z,-1.50
2018-11-29T16:34:37.132Z,-1.40
2018-11-29T16:37:07.198Z,-1.40
2018-11-29T16:39:37.049Z,-1.40
2018-11-29T16:42:07.835Z,-1.30
2018-11-29T16:44:39.510Z,-1.30
2018-11-29T16:47:09.298Z,-1.30
2018-11-29T16:49:38.948Z,-1.30
2018-11-29T16:52:09.674Z,-1.30
2018-11-29T16:54:39.605Z,-1.30
2018-11-29T16:57:09.368Z,-1.20
2018-11-29T16:59:43.162Z,-1.20
2018-11-29T17:02:13.364Z,-1.20
2018-11-29T17:04:43.039Z,-1.20
2018-11-29T17:07:12.871Z,-1.20
2018-11-29T17:09:42.568Z,-1.20
2018-11-29T17:12:12.998Z,-1.20
2018-11-29T17:14:44.230Z,-1.20
2018-11-29T17:17:13.627Z,-1.20
2018-11-29T17:19:45.241Z,-1.20
2018-11-29T17:22:16.053Z,-1.20
2018-11-29T17:24:47.440Z,-1.20
2018-11-29T17:27:16.936Z,-1.20
2018-11-29T17:29:46.484Z,-1.20
2018-11-29T17:32:15.946Z,-1.20
2018-11-29T17:34:46.416Z,-1.20
2018-11-29T17:54:09.134Z,-1.20
2018-11-29T17:56:38.490Z,-1.40
2018-11-29T17:59:07.874Z,-1.40
2018-11-29T18:01:38.114Z,-1.40
2018-11-29T18:04:07.590Z,-1.40
2018-11-29T18:06:37.403Z,-1.40
2018-11-29T18:09:11.761Z,-1.50
2018-11-29T18:11:41.608Z,-1.50
2018-11-29T18:16:49.756Z,-1.50
2018-11-29T18:19:19.927Z,-1.50
2018-11-29T18:22:05.342Z,-1.50
2018-11-29T18:24:34.966Z,-1.60
2018-11-29T18:27:05.559Z,-1.60
2018-11-29T18:29:35.981Z,-1.60
2018-11-29T18:32:05.742Z,-1.60
2018-11-29T18:34:37.118Z,-1.60
2018-11-29T18:37:07.314Z,-1.60
2018-11-29T18:39:38.173Z,-1.70
2018-11-29T18:42:11.240Z,-1.60
2018-11-29T18:54:06.277Z,-1.70
2018-11-29T18:56:38.461Z,-1.90
2018-11-29T18:59:09.562Z,-1.90
2018-11-29T19:01:39.888Z,-1.90
2018-11-29T19:04:10.477Z,-1.90
2018-11-29T19:06:45.240Z,-1.90
2018-11-29T19:09:22.063Z,-1.90
2018-11-29T19:11:54.192Z,-1.80
2018-11-29T19:14:27.744Z,-1.90
2018-11-29T19:19:36.489Z,-1.80
2018-11-29T19:22:07.096Z,-1.80
2018-11-29T19:24:40.088Z,-1.80
2018-11-29T19:27:21.086Z,-1.80
2018-11-29T19:29:52.362Z,-1.80
2018-11-29T19:32:22.130Z,-1.80
2018-11-29T19:34:51.721Z,-1.80
2018-11-29T19:37:22.115Z,-1.90
2018-11-29T19:39:54.927Z,-1.90
2018-11-29T19:42:26.108Z,-1.90
2018-11-29T19:44:56.364Z,-1.90
2018-11-29T19:47:26.111Z,-1.90
2018-11-29T19:49:55.789Z,-2.00
2018-11-29T19:52:27.744Z,-1.90
2018-11-29T19:54:59.296Z,-2.00
2018-11-29T19:57:34.128Z,-2.00
2018-11-29T20:00:05.462Z,-2.00
2018-11-29T20:02:36.707Z,-2.00
2018-11-29T20:05:16.346Z,-2.00
2018-11-29T20:08:11.467Z,-2.00
2018-11-29T20:10:45.277Z,-2.00
2018-11-29T20:14:23.276Z,-2.00
2018-11-29T20:16:54.802Z,-2.00
2018-11-29T20:19:25.048Z,-2.10
2018-11-29T20:21:55.982Z,-2.10
2018-11-29T20:24:33.215Z,-2.10
2018-11-29T20:27:06.098Z,-2.10
2018-11-29T20:29:36.816Z,-2.10
2018-11-29T20:32:06.802Z,-2.10
2018-11-29T20:34:37.217Z,-2.10
2018-11-29T20:37:07.074Z,-2.10
2018-11-29T20:39:36.535Z,-2.10
2018-11-29T20:42:06.662Z,-2.10
2018-11-29T20:44:37.400Z,-2.10
2018-11-29T20:47:07.448Z,-2.10
2018-11-29T20:49:36.848Z,-2.10
2018-11-29T20:52:06.337Z,-2.20
2018-11-29T20:54:36.751Z,-2.10
2018-11-29T20:57:09.557Z,-2.20
2018-11-29T20:59:43.297Z,-2.10
2018-11-29T21:02:13.357Z,-2.20
2018-11-29T21:04:44.021Z,-2.20
2018-11-29T21:07:14.659Z,-2.20
2018-11-29T21:09:44.488Z,-2.20
2018-11-29T21:12:14.188Z,-2.20
2018-11-29T21:14:45.144Z,-2.20
2018-11-29T21:17:14.630Z,-2.20
2018-11-29T21:19:45.049Z,-2.20
2018-11-29T21:22:15.368Z,-2.20
2018-11-29T21:24:45.245Z,-2.30
2018-11-29T21:27:14.754Z,-2.30
2018-11-29T21:29:44.365Z,-2.20
2018-11-29T21:32:13.729Z,-2.30
2018-11-29T21:34:43.623Z,-2.30
2018-11-29T21:37:13.090Z,-2.30
2018-11-29T21:39:43.707Z,-2.30
2018-11-29T21:42:13.318Z,-2.30
2018-11-29T21:44:43.983Z,-2.30
2018-11-29T21:47:13.507Z,-2.30
2018-11-29T21:49:44.449Z,-2.30
2018-11-29T21:52:13.899Z,-2.30
2018-11-29T21:54:48.833Z,-2.30
2018-11-29T21:57:18.489Z,-2.30
2018-11-29T21:59:47.993Z,-2.40
2018-11-29T22:02:24.575Z,-2.40
2018-11-29T22:04:54.130Z,-2.40
2018-11-29T22:07:24.322Z,-2.40
2018-11-29T22:09:54.496Z,-2.40
2018-11-29T22:12:25.311Z,-2.40
2018-11-29T22:14:54.858Z,-2.50
2018-11-29T22:17:25.821Z,-2.50
2018-11-29T22:19:56.085Z,-2.50
2018-11-29T22:22:28.399Z,-2.40
2018-11-29T22:24:57.287Z,-2.40
2018-11-29T22:27:28.212Z,-2.50
2018-11-29T22:30:00.525Z,-2.50
2018-11-29T22:32:30.215Z,-2.50
2018-11-29T22:34:59.920Z,-2.50
2018-11-29T22:37:29.513Z,-2.50
2018-11-29T22:39:59.033Z,-2.50
2018-11-29T22:42:29.313Z,-2.50
2018-11-29T22:44:58.823Z,-2.50
2018-11-29T22:47:29.007Z,-2.50
2018-11-29T22:49:58.498Z,-2.50
2018-11-29T22:52:28.457Z,-2.50
2018-11-29T22:54:58.726Z,-2.50
2018-11-29T22:57:28.293Z,-2.50
2018-11-29T22:59:58.411Z,-2.50
2018-11-29T23:02:28.748Z,-2.50
2018-11-29T23:04:59.417Z,-2.50
2018-11-29T23:07:28.931Z,-2.50
2018-11-29T23:09:58.327Z,-2.50
2018-11-29T23:12:27.878Z,-2.50
2018-11-29T23:14:58.890Z,-2.50
2018-11-29T23:17:28.603Z,-2.60
2018-11-29T23:20:07.096Z,-2.50
2018-11-29T23:22:37.318Z,-2.50
2018-11-29T23:25:08.619Z,-2.60
2018-11-29T23:27:38.249Z,-2.50
2018-11-29T23:30:12.183Z,-2.50
2018-11-29T23:32:43.076Z,-2.60
2018-11-29T23:35:14.279Z,-2.60
2018-11-29T23:37:46.275Z,-2.50
2018-11-29T23:40:17.626Z,-2.50
2018-11-29T23:42:48.116Z,-2.50
2018-11-29T23:45:18.056Z,-2.50
2018-11-29T23:47:47.457Z,-2.60
2018-11-29T23:50:17.900Z,-2.60
2018-11-29T23:52:53.926Z,-2.60
2018-11-29T23:55:23.733Z,-2.60
2018-11-29T23:57:52.998Z,-2.60
